Weather at Remo Private Airport

Public forecast

Using degrees Fahrenheit for public forecast. Weather courtesy of forecast.io.

Closest aviation weather report (METAR) to Remo Private Airport

Report is more than 6 hours old.

Closest report is Tangier Island Airport, 15.2 nm (28.1 km) E. Retrieved 2020/07/29 15:55 UTC (2 months ago):

KTGI 291555Z AUTO 32005KT 10SM BKN070 31/24 A2998 RMK AO1 T03090236

Closest aviation forecast (TAF) to Remo Private Airport

Forecast is more than 12 hours old.

Closest forecast is Patuxent River Naval Air Station (Trapnell Field), 28.4 nm (52.6 km) N. Retrieved 2015/11/16 23:24 UTC (5 years ago):

TAF KNHK 162300Z 1623/1723 VRB04KT 9999 FEW160 SCT250 542709 523601 QNH3022INS FM170500 VRB04KT 9999 SCT160 BKN250 500000 QNH3026INS FM170900 05006KT 9999 FEW020 BKN160 OVC250 621608 QNH3030INS FM171400 05010KT 9999 FEW020 SCT160 SCT250 600000 QNH3037INS FM171900 06010KT 9999 BKN025 BKN250 QNH3040INS AUTOMATED SENSOR METWATCH 1704 TIL 1709 T08/1709Z T16/1719Z FN20013